createdAt,value
2023-04-19T00:00:08.614Z,6.40
2023-04-19T00:00:42.156Z,6.25
2023-04-19T00:01:14.586Z,6.22
2023-04-19T00:01:47.036Z,6.30
2023-04-19T00:02:19.777Z,6.57
2023-04-19T00:02:52.257Z,6.90
2023-04-19T00:03:26.256Z,6.50
2023-04-19T00:03:58.848Z,5.95
2023-04-19T00:04:31.786Z,6.53
2023-04-19T00:05:05.432Z,6.73
2023-04-19T00:05:41.705Z,7.05
2023-04-19T00:06:15.499Z,6.57
2023-04-19T00:06:48.014Z,6.70
2023-04-19T00:07:20.747Z,7.10
2023-04-19T00:07:53.077Z,6.60
2023-04-19T00:08:27.013Z,7.20
2023-04-19T00:09:00.666Z,6.88
2023-04-19T00:09:33.963Z,7.07
2023-04-19T00:10:07.643Z,6.68
2023-04-19T00:10:41.022Z,7.03
2023-04-19T00:11:14.372Z,7.18
2023-04-19T00:11:47.791Z,6.97
2023-04-19T00:12:21.292Z,7.30
2023-04-19T00:12:54.347Z,6.93
2023-04-19T00:13:27.628Z,7.28
2023-04-19T00:14:00.903Z,7.80
2023-04-19T00:14:34.470Z,7.07
2023-04-19T00:15:08.078Z,7.93
2023-04-19T00:15:41.060Z,7.68
2023-04-19T00:16:14.159Z,7.43
2023-04-19T00:16:47.618Z,7.70
2023-04-19T00:17:21.763Z,8.18
2023-04-19T00:17:54.840Z,8.02
2023-04-19T00:18:28.175Z,8.45
2023-04-19T00:19:02.373Z,8.32
2023-04-19T00:19:36.475Z,8.23
2023-04-19T00:20:10.986Z,8.32
2023-04-19T00:20:44.165Z,8.30
2023-04-19T00:21:17.541Z,8.30
2023-04-19T00:21:50.834Z,8.47
2023-04-19T00:22:24.419Z,8.15
2023-04-19T00:22:59.643Z,8.40
2023-04-19T00:23:33.020Z,8.23
2023-04-19T00:24:06.517Z,8.57
2023-04-19T00:24:39.682Z,8.00
2023-04-19T00:25:12.999Z,8.57
2023-04-19T00:25:47.159Z,8.95
2023-04-19T00:26:20.649Z,7.95
2023-04-19T00:26:57.930Z,8.20
2023-04-19T00:27:31.525Z,8.70
2023-04-19T00:28:05.814Z,8.57
2023-04-19T00:28:38.994Z,8.48
2023-04-19T00:29:12.165Z,8.85
2023-04-19T00:29:45.455Z,9.00
2023-04-19T00:30:18.424Z,8.18
2023-04-19T00:30:51.723Z,9.52
2023-04-19T00:31:24.934Z,8.52
2023-04-19T00:31:58.284Z,8.35
2023-04-19T00:32:31.590Z,8.57
2023-04-19T00:33:05.078Z,8.77
2023-04-19T00:33:38.311Z,9.43
2023-04-19T00:34:11.386Z,9.10
2023-04-19T00:34:44.459Z,9.20
2023-04-19T00:35:17.545Z,9.90
2023-04-19T00:35:52.577Z,9.30
2023-04-19T00:36:27.186Z,9.93
2023-04-19T00:37:00.292Z,9.57
2023-04-19T00:37:33.424Z,9.55
2023-04-19T00:38:06.501Z,9.20
2023-04-19T00:38:39.770Z,10.00
2023-04-19T00:39:13.564Z,9.27
2023-04-19T00:39:46.845Z,9.65
2023-04-19T00:40:20.328Z,9.77
2023-04-19T00:40:53.612Z,9.43
2023-04-19T00:41:26.693Z,9.50
2023-04-19T00:41:59.969Z,10.05
2023-04-19T00:42:33.351Z,10.07
2023-04-19T00:43:06.528Z,10.02
2023-04-19T00:43:40.625Z,9.70
2023-04-19T00:44:14.135Z,10.40
2023-04-19T00:44:47.601Z,10.55
2023-04-19T00:45:21.696Z,10.13
2023-04-19T00:45:55.272Z,10.38
2023-04-19T00:46:28.645Z,10.77
2023-04-19T00:47:01.679Z,9.90
2023-04-19T00:47:35.880Z,10.15
2023-04-19T00:48:09.556Z,11.18
2023-04-19T00:48:45.731Z,11.00
2023-04-19T00:49:19.981Z,10.73
2023-04-19T00:49:55.315Z,11.40
2023-04-19T00:50:28.592Z,11.00
2023-04-19T00:51:03.405Z,10.45
2023-04-19T00:51:36.887Z,10.15
2023-04-19T00:52:10.070Z,11.20
2023-04-19T00:52:43.458Z,9.90
2023-04-19T00:53:17.244Z,10.68
2023-04-19T00:53:52.168Z,10.10
2023-04-19T00:54:25.858Z,11.35
2023-04-19T00:54:59.962Z,10.32
2023-04-19T00:55:34.566Z,11.10
2023-04-19T00:56:08.976Z,11.18
2023-04-19T00:56:42.255Z,10.82
2023-04-19T00:57:16.147Z,11.27
2023-04-19T00:57:49.324Z,11.27
2023-04-19T00:58:22.707Z,10.88
2023-04-19T00:58:57.222Z,11.55
2023-04-19T00:59:31.421Z,12.60
2023-04-19T01:00:07.162Z,11.93
2023-04-19T01:00:40.649Z,11.05
2023-04-19T01:01:14.170Z,10.90
2023-04-19T01:01:47.972Z,10.32
2023-04-19T01:02:22.884Z,11.10
2023-04-19T01:02:56.434Z,11.02
2023-04-19T01:03:30.234Z,10.68
2023-04-19T01:04:03.737Z,10.55
2023-04-19T01:04:37.546Z,11.15
2023-04-19T01:05:13.021Z,11.00
2023-04-19T01:05:46.104Z,11.93
2023-04-19T01:06:19.380Z,11.63
2023-04-19T01:06:52.564Z,11.67
2023-04-19T01:07:26.038Z,10.77
2023-04-19T01:07:59.115Z,11.20
2023-04-19T01:08:32.602Z,12.18
2023-04-19T01:09:05.676Z,12.27
2023-04-19T01:09:43.771Z,11.85
2023-04-19T01:10:17.359Z,12.02
2023-04-19T01:10:50.739Z,11.75
2023-04-19T01:11:24.638Z,11.90
2023-04-19T01:11:57.713Z,11.65
2023-04-19T01:12:30.992Z,11.57
2023-04-19T01:13:04.266Z,11.82
2023-04-19T01:13:37.658Z,12.98
2023-04-19T01:14:11.032Z,11.65
2023-04-19T01:14:44.932Z,11.15
2023-04-19T01:15:18.208Z,11.10
2023-04-19T01:15:52.047Z,11.88
2023-04-19T01:16:27.563Z,11.13
2023-04-19T01:17:01.027Z,11.40
2023-04-19T01:17:34.416Z,11.00
2023-04-19T01:18:08.038Z,13.20
2023-04-19T01:18:41.886Z,12.02
2023-04-19T01:19:15.075Z,12.50
2023-04-19T01:19:48.342Z,11.70
2023-04-19T01:20:21.620Z,12.57
2023-04-19T01:20:55.209Z,11.98
2023-04-19T01:21:31.179Z,12.38
2023-04-19T01:22:04.642Z,12.23
2023-04-19T01:22:40.885Z,12.70
2023-04-19T01:23:14.068Z,11.82
2023-04-19T01:23:47.240Z,11.87
2023-04-19T01:24:21.863Z,11.57
2023-04-19T01:24:56.577Z,12.75
2023-04-19T01:25:30.055Z,11.68
2023-04-19T01:26:04.057Z,12.55
2023-04-19T01:26:37.640Z,12.15
2023-04-19T01:27:11.735Z,12.30
2023-04-19T01:27:45.017Z,12.70
2023-04-19T01:28:18.307Z,12.10
2023-04-19T01:28:51.885Z,12.85
2023-04-19T01:29:25.062Z,12.33
2023-04-19T01:29:58.446Z,12.98
2023-04-19T01:30:33.266Z,12.88
2023-04-19T01:31:06.564Z,13.05
2023-04-19T01:31:40.053Z,13.50
2023-04-19T01:32:16.277Z,12.45
2023-04-19T01:32:49.433Z,12.60
2023-04-19T01:33:23.142Z,12.95
2023-04-19T01:33:56.325Z,13.00
2023-04-19T01:34:29.611Z,12.80
2023-04-19T01:35:03.408Z,13.07
2023-04-19T01:35:36.682Z,12.43
2023-04-19T01:36:09.853Z,13.38
2023-04-19T01:36:43.030Z,13.20
2023-04-19T01:37:16.514Z,12.93
2023-04-19T01:37:49.696Z,13.00
2023-04-19T01:38:23.077Z,13.25
2023-04-19T01:38:56.665Z,12.90
2023-04-19T01:39:29.845Z,13.50
2023-04-19T01:40:04.152Z,13.18
2023-04-19T01:40:37.447Z,12.80
2023-04-19T01:41:11.014Z,12.95
2023-04-19T01:41:44.188Z,13.25
2023-04-19T01:42:17.479Z,13.27
2023-04-19T01:42:50.758Z,13.15
2023-04-19T01:43:24.042Z,13.13
2023-04-19T01:43:57.513Z,13.65
2023-04-19T01:44:31.309Z,13.73
2023-04-19T01:45:06.232Z,12.50
2023-04-19T01:45:39.505Z,12.55
2023-04-19T01:46:12.586Z,13.23
2023-04-19T01:46:45.899Z,13.70
2023-04-19T01:47:19.042Z,13.20
2023-04-19T01:47:52.264Z,13.27
2023-04-19T01:48:25.559Z,12.77
2023-04-19T01:48:59.707Z,13.27
2023-04-19T01:49:32.983Z,13.30
2023-04-19T01:50:06.682Z,13.98
2023-04-19T01:50:41.894Z,13.40
2023-04-19T01:51:18.043Z,13.70
2023-04-19T01:51:51.428Z,14.30
2023-04-19T01:52:24.604Z,13.77
2023-04-19T01:52:57.891Z,14.20
2023-04-19T01:53:32.299Z,13.38
2023-04-19T01:54:05.692Z,13.15
2023-04-19T01:54:39.120Z,13.57
2023-04-19T01:55:12.444Z,13.68
2023-04-19T01:55:45.836Z,13.75
2023-04-19T01:56:20.334Z,13.50
2023-04-19T01:56:53.514Z,13.82
2023-04-19T01:57:26.581Z,13.77
2023-04-19T01:57:59.862Z,14.10
2023-04-19T01:58:33.143Z,14.15
2023-04-19T01:59:06.524Z,14.23
2023-04-19T01:59:39.910Z,14.23
2023-04-19T02:00:14.005Z,13.70
2023-04-19T02:00:47.625Z,13.48
2023-04-19T02:01:21.106Z,13.02
2023-04-19T02:01:54.601Z,13.15
2023-04-19T02:02:27.997Z,13.35
2023-04-19T02:03:01.556Z,13.67
2023-04-19T02:03:34.877Z,13.45
2023-04-19T02:04:08.523Z,14.05
2023-04-19T02:04:41.894Z,13.80
2023-04-19T02:05:15.164Z,14.25
2023-04-19T02:05:48.449Z,12.60
2023-04-19T02:06:21.535Z,14.00
2023-04-19T02:06:57.056Z,14.43
2023-04-19T02:07:30.333Z,13.52
2023-04-19T02:08:04.435Z,14.02
2023-04-19T02:08:37.917Z,13.60
2023-04-19T02:09:11.003Z,13.57
2023-04-19T02:09:44.389Z,14.27
2023-04-19T02:10:18.395Z,13.75
2023-04-19T02:10:51.555Z,13.40
2023-04-19T02:11:24.630Z,13.30
2023-04-19T02:11:57.706Z,13.68
2023-04-19T02:12:34.185Z,13.52
2023-04-19T02:13:09.365Z,14.32
2023-04-19T02:13:42.783Z,13.70
2023-04-19T02:14:16.530Z,13.30
2023-04-19T02:14:50.047Z,12.63
2023-04-19T02:15:23.324Z,14.48
2023-04-19T02:15:56.825Z,13.95
2023-04-19T02:16:30.255Z,13.57
2023-04-19T02:17:03.680Z,14.07
2023-04-19T02:17:37.102Z,13.77
2023-04-19T02:18:10.339Z,13.73
2023-04-19T02:18:43.616Z,14.18
2023-04-19T02:19:16.804Z,14.15
2023-04-19T02:19:50.077Z,14.30
2023-04-19T02:20:24.407Z,13.68
2023-04-19T02:20:57.767Z,14.73
2023-04-19T02:21:32.272Z,14.27
2023-04-19T02:22:05.555Z,14.80
2023-04-19T02:22:38.550Z,14.75
2023-04-19T02:23:11.910Z,14.50
2023-04-19T02:23:45.602Z,14.20
2023-04-19T02:24:18.676Z,15.15
2023-04-19T02:24:51.761Z,15.20
2023-04-19T02:25:25.033Z,15.03
2023-04-19T02:25:58.207Z,14.68
2023-04-19T02:26:31.491Z,15.43
2023-04-19T02:27:04.356Z,14.80
2023-04-19T02:27:38.868Z,14.80
2023-04-19T02:28:11.944Z,14.50
2023-04-19T02:28:45.224Z,14.65
2023-04-19T02:29:19.115Z,14.57
2023-04-19T02:29:52.304Z,14.60
2023-04-19T02:30:25.675Z,15.32
2023-04-19T02:30:59.984Z,13.80
2023-04-19T02:31:34.504Z,13.95
2023-04-19T02:32:07.872Z,15.00
2023-04-19T02:32:41.380Z,15.90
2023-04-19T02:33:15.462Z,16.10
2023-04-19T02:33:48.850Z,16.60
2023-04-19T02:34:22.119Z,16.65
2023-04-19T02:34:55.299Z,15.73
2023-04-19T02:35:29.108Z,15.63
2023-04-19T02:36:04.727Z,14.70
2023-04-19T02:36:39.853Z,14.83
2023-04-19T02:37:13.133Z,15.23
2023-04-19T02:37:46.422Z,14.93
2023-04-19T02:38:19.689Z,14.68
2023-04-19T02:38:52.968Z,15.27
2023-04-19T02:39:26.251Z,14.65
2023-04-19T02:39:59.537Z,16.05
2023-04-19T02:40:35.064Z,15.30
2023-04-19T02:41:08.340Z,15.43
2023-04-19T02:41:45.720Z,14.40
2023-04-19T02:42:18.896Z,15.27
2023-04-19T02:42:53.002Z,15.07
2023-04-19T02:43:27.820Z,15.75
2023-04-19T02:44:00.990Z,15.27
2023-04-19T02:44:34.375Z,14.93
2023-04-19T02:45:07.973Z,14.25
2023-04-19T02:45:41.670Z,15.48
2023-04-19T02:46:14.985Z,14.80
2023-04-19T02:46:54.562Z,15.15
2023-04-19T02:47:27.780Z,14.32
2023-04-19T02:48:01.324Z,14.53
2023-04-19T02:48:34.706Z,15.05
2023-04-19T02:49:08.098Z,14.57
2023-04-19T02:49:42.086Z,14.57
2023-04-19T02:50:17.313Z,15.32
2023-04-19T02:50:54.687Z,15.38
2023-04-19T02:51:28.278Z,15.15
2023-04-19T02:52:01.755Z,14.18
2023-04-19T02:52:36.375Z,14.48
2023-04-19T02:53:09.957Z,15.23
2023-04-19T02:53:43.344Z,15.00
2023-04-19T02:54:16.960Z,14.23
2023-04-19T02:54:51.337Z,14.52
2023-04-19T02:55:24.752Z,14.20
2023-04-19T02:56:07.419Z,13.88
2023-04-19T02:56:40.952Z,14.23
2023-04-19T02:57:14.186Z,14.23
2023-04-19T02:57:49.229Z,14.60
2023-04-19T02:58:22.684Z,14.55
2023-04-19T02:59:06.007Z,14.95
2023-04-19T02:59:40.412Z,14.80
2023-04-19T03:00:14.513Z,15.23
2023-04-19T03:00:54.408Z,14.40
2023-04-19T03:01:28.714Z,15.18
2023-04-19T03:02:02.485Z,14.75
2023-04-19T03:02:36.433Z,14.35
2023-04-19T03:03:10.753Z,14.70
2023-04-19T03:03:44.086Z,15.02
2023-04-19T03:04:17.834Z,14.23
2023-04-19T03:04:51.300Z,14.10
2023-04-19T03:05:24.888Z,14.93
2023-04-19T03:05:58.393Z,14.23
2023-04-19T03:06:33.492Z,14.75
2023-04-19T03:07:09.028Z,14.23
2023-04-19T03:07:44.523Z,14.73
2023-04-19T03:08:18.470Z,14.38
2023-04-19T03:08:52.350Z,14.60
2023-04-19T03:09:25.628Z,13.77
2023-04-19T03:09:58.604Z,14.93
2023-04-19T03:10:31.778Z,14.60
2023-04-19T03:11:05.068Z,14.97
2023-04-19T03:11:39.059Z,14.57
2023-04-19T03:12:12.541Z,14.57
2023-04-19T03:12:45.836Z,14.55
2023-04-19T03:13:19.004Z,15.27
2023-04-19T03:13:52.186Z,14.50
2023-04-19T03:14:25.479Z,14.40
2023-04-19T03:14:58.984Z,15.05
2023-04-19T03:15:32.642Z,14.68
2023-04-19T03:16:06.938Z,14.88
2023-04-19T03:16:40.128Z,14.60
2023-04-19T03:17:13.396Z,14.63
2023-04-19T03:17:46.912Z,15.35
2023-04-19T03:18:20.363Z,14.80
2023-04-19T03:18:53.657Z,14.70
2023-04-19T03:19:30.818Z,14.93
2023-04-19T03:20:10.144Z,15.07
2023-04-19T03:20:43.541Z,14.30
2023-04-19T03:21:17.008Z,15.05
2023-04-19T03:21:58.072Z,15.48
2023-04-19T03:22:31.652Z,15.03
2023-04-19T03:23:04.876Z,14.88
2023-04-19T03:23:38.979Z,15.05
2023-04-19T03:24:12.891Z,14.88
2023-04-19T03:24:51.020Z,15.38
2023-04-19T03:25:28.706Z,15.63
2023-04-19T03:26:13.351Z,14.43
2023-04-19T03:26:52.772Z,14.93
2023-04-19T03:27:29.837Z,14.82
2023-04-19T03:28:07.013Z,14.20
2023-04-19T03:29:03.444Z,14.10
2023-04-19T03:29:49.311Z,14.63
2023-04-19T03:30:22.692Z,14.77
2023-04-19T03:30:55.997Z,15.43
2023-04-19T03:31:29.368Z,14.95
2023-04-19T03:32:02.742Z,15.30
2023-04-19T03:32:37.205Z,14.63
2023-04-19T03:33:11.135Z,15.05
2023-04-19T03:33:44.725Z,14.88
2023-04-19T03:34:19.364Z,14.00
2023-04-19T03:34:54.872Z,15.23
2023-04-19T03:35:30.092Z,14.32
2023-04-19T03:36:10.408Z,15.98
2023-04-19T03:36:44.850Z,15.65
2023-04-19T03:37:18.434Z,15.20
2023-04-19T03:37:52.430Z,14.43
2023-04-19T03:38:26.024Z,14.82
2023-04-19T03:38:59.604Z,15.60
2023-04-19T03:39:33.804Z,15.02
2023-04-19T03:40:10.464Z,15.38
2023-04-19T03:40:43.948Z,15.80
2023-04-19T03:41:21.539Z,15.48
2023-04-19T03:41:59.008Z,15.32
2023-04-19T03:42:47.033Z,15.05
2023-04-19T03:43:30.963Z,14.60
2023-04-19T03:44:04.141Z,14.75
2023-04-19T03:44:37.522Z,14.85
2023-04-19T03:45:12.039Z,14.85
2023-04-19T03:45:50.878Z,15.60
2023-04-19T03:46:24.814Z,14.20
2023-04-19T03:46:58.235Z,15.13
2023-04-19T03:47:34.908Z,14.27
2023-04-19T03:48:08.902Z,14.80
2023-04-19T03:48:42.504Z,15.10
2023-04-19T03:49:16.049Z,15.52
2023-04-19T03:49:52.621Z,15.27
2023-04-19T03:50:25.996Z,15.38
2023-04-19T03:51:01.429Z,15.60
2023-04-19T03:51:35.031Z,15.10
2023-04-19T03:52:08.407Z,15.27
2023-04-19T03:52:41.675Z,15.57
2023-04-19T03:53:19.379Z,15.00
2023-04-19T03:53:52.452Z,15.23
2023-04-19T03:54:26.227Z,15.43
2023-04-19T03:54:59.814Z,13.93
2023-04-19T03:55:41.598Z,14.27
2023-04-19T03:56:15.594Z,15.57
2023-04-19T03:56:48.770Z,15.07
2023-04-19T03:57:23.072Z,15.20
2023-04-19T03:57:57.064Z,14.10
2023-04-19T03:58:46.625Z,15.37
2023-04-19T03:59:19.807Z,14.32
2023-04-19T03:59:53.190Z,15.00
2023-04-19T04:00:26.676Z,14.55
2023-04-19T04:01:05.282Z,14.80
2023-04-19T04:01:42.682Z,14.30
2023-04-19T04:02:16.555Z,14.05
2023-04-19T04:02:50.105Z,14.15
2023-04-19T04:03:23.664Z,14.35
2023-04-19T04:03:57.147Z,14.05
2023-04-19T04:04:31.205Z,14.77
2023-04-19T04:05:04.846Z,13.82
2023-04-19T04:05:38.438Z,14.30
2023-04-19T04:06:12.172Z,14.48
2023-04-19T04:06:46.066Z,13.77
2023-04-19T04:07:23.648Z,13.70
2023-04-19T04:07:58.256Z,13.80
2023-04-19T04:08:32.457Z,13.43
2023-04-19T04:09:05.950Z,14.32
2023-04-19T04:09:39.023Z,13.52
2023-04-19T04:10:13.018Z,14.20
2023-04-19T04:10:49.167Z,14.38
2023-04-19T04:11:22.758Z,14.35
2023-04-19T04:11:55.946Z,14.07
2023-04-19T04:12:29.213Z,12.57
2023-04-19T04:13:03.827Z,13.57
2023-04-19T04:13:47.036Z,12.98
2023-04-19T04:14:25.233Z,12.70
2023-04-19T04:14:58.524Z,14.20
2023-04-19T04:15:32.207Z,13.43
2023-04-19T04:16:05.816Z,13.10
2023-04-19T04:16:39.283Z,13.93
2023-04-19T04:17:13.373Z,13.95
2023-04-19T04:17:47.236Z,14.13
2023-04-19T04:18:20.560Z,12.77
2023-04-19T04:18:54.252Z,13.50
2023-04-19T04:19:31.209Z,12.43
2023-04-19T04:20:04.694Z,13.27
2023-04-19T04:20:38.189Z,14.40
2023-04-19T04:21:15.241Z,13.40
2023-04-19T04:21:52.104Z,13.40
2023-04-19T04:22:26.403Z,12.80
2023-04-19T04:22:59.704Z,13.35
2023-04-19T04:23:34.300Z,13.50
2023-04-19T04:24:09.010Z,13.25
2023-04-19T04:24:54.382Z,12.88
2023-04-19T04:25:33.700Z,13.05
2023-04-19T04:26:10.459Z,12.65
2023-04-19T04:27:01.394Z,12.30
2023-04-19T04:27:37.617Z,12.57
2023-04-19T04:28:11.604Z,12.93
2023-04-19T04:28:46.428Z,12.60
2023-04-19T04:29:19.601Z,13.38
2023-04-19T04:29:53.100Z,12.80
2023-04-19T04:30:28.031Z,12.80
2023-04-19T04:31:03.236Z,13.02
2023-04-19T04:31:39.115Z,13.10
2023-04-19T04:32:14.809Z,12.32
2023-04-19T04:32:51.628Z,13.18
2023-04-19T04:33:29.116Z,12.73
2023-04-19T04:34:02.975Z,12.80
2023-04-19T04:34:39.200Z,12.85
2023-04-19T04:35:17.903Z,13.20
2023-04-19T04:36:09.699Z,12.63
2023-04-19T04:36:44.853Z,13.68
2023-04-19T04:37:18.440Z,12.25
2023-04-19T04:37:54.584Z,13.90
2023-04-19T04:38:27.776Z,12.68
2023-04-19T04:39:02.379Z,13.18
2023-04-19T04:39:39.761Z,12.95
2023-04-19T04:40:15.281Z,14.00
2023-04-19T04:40:53.995Z,13.70
2023-04-19T04:41:27.576Z,13.27
2023-04-19T04:42:02.392Z,13.88
2023-04-19T04:42:36.188Z,13.27
2023-04-19T04:43:11.634Z,13.50
2023-04-19T04:43:47.058Z,14.07
2023-04-19T04:44:21.357Z,13.02
2023-04-19T04:44:58.524Z,13.52
2023-04-19T04:45:32.765Z,12.93
2023-04-19T04:46:07.874Z,13.60
2023-04-19T04:46:45.303Z,13.70
2023-04-19T04:47:22.654Z,13.40
2023-04-19T04:48:00.324Z,13.55
2023-04-19T04:48:33.984Z,13.32
2023-04-19T04:49:07.976Z,13.50
2023-04-19T04:49:41.468Z,14.07
2023-04-19T04:50:14.841Z,13.80
2023-04-19T04:50:48.331Z,13.55
2023-04-19T04:51:21.605Z,14.73
2023-04-19T04:51:57.245Z,12.80
2023-04-19T04:52:30.676Z,13.27
2023-04-19T04:53:28.179Z,13.93
2023-04-19T04:54:01.764Z,13.85
2023-04-19T04:54:35.147Z,14.25
2023-04-19T04:55:08.530Z,13.15
2023-04-19T04:55:46.024Z,13.73
2023-04-19T04:56:20.592Z,13.07
2023-04-19T04:56:53.964Z,13.93
2023-04-19T04:57:28.103Z,14.10
2023-04-19T04:58:01.583Z,13.73
2023-04-19T04:59:01.084Z,13.20
2023-04-19T04:59:39.581Z,13.30
2023-04-19T05:00:13.692Z,13.30
2023-04-19T05:00:56.248Z,13.57
2023-04-19T05:01:31.675Z,13.43
2023-04-19T05:02:04.789Z,13.75
2023-04-19T05:02:38.642Z,12.88
2023-04-19T05:03:12.195Z,14.05
2023-04-19T05:03:52.865Z,14.13
2023-04-19T05:04:27.397Z,14.10
2023-04-19T05:05:00.812Z,14.73
2023-04-19T05:05:34.200Z,14.82
2023-04-19T05:06:07.784Z,14.88
2023-04-19T05:06:41.784Z,14.77
2023-04-19T05:07:16.398Z,13.70
2023-04-19T05:07:49.669Z,14.10
2023-04-19T05:08:23.155Z,14.45
2023-04-19T05:08:56.150Z,14.05
2023-04-19T05:09:47.024Z,14.38
2023-04-19T05:10:24.399Z,15.10
2023-04-19T05:10:58.811Z,14.18
2023-04-19T05:11:35.356Z,14.57
2023-04-19T05:12:09.049Z,14.80
2023-04-19T05:12:42.750Z,14.40
2023-04-19T05:13:16.218Z,14.38
2023-04-19T05:13:49.774Z,14.73
2023-04-19T05:14:23.301Z,14.02
2023-04-19T05:14:58.212Z,13.95
2023-04-19T05:15:31.803Z,14.73
2023-04-19T05:16:06.364Z,15.00
2023-04-19T05:16:40.964Z,13.93
2023-04-19T05:17:14.199Z,14.68
2023-04-19T05:17:47.787Z,14.75
2023-04-19T05:18:20.966Z,14.82
2023-04-19T05:18:55.889Z,14.60
2023-04-19T05:19:30.294Z,14.90
2023-04-19T05:20:09.413Z,14.23
2023-04-19T05:20:44.327Z,14.20
2023-04-19T05:21:23.752Z,14.60
2023-04-19T05:21:57.243Z,14.67
2023-04-19T05:22:30.620Z,14.43
2023-04-19T05:23:04.430Z,14.48
2023-04-19T05:23:39.849Z,14.55
2023-04-19T05:24:13.020Z,15.30
2023-04-19T05:24:47.936Z,14.10
2023-04-19T05:25:21.938Z,14.60
2023-04-19T05:25:55.115Z,15.15
2023-04-19T05:26:30.545Z,14.48
2023-04-19T05:27:03.825Z,14.60
2023-04-19T05:27:37.017Z,14.13
2023-04-19T05:28:10.282Z,14.88
2023-04-19T05:28:53.495Z,14.73
2023-04-19T05:29:33.942Z,14.60
2023-04-19T05:30:07.447Z,14.43
2023-04-19T05:30:43.682Z,14.25
2023-04-19T05:31:17.507Z,14.73
2023-04-19T05:32:01.622Z,13.50
2023-04-19T05:32:38.006Z,14.32
2023-04-19T05:33:11.960Z,14.27
2023-04-19T05:33:45.646Z,14.80
2023-04-19T05:34:21.338Z,14.23
2023-04-19T05:34:56.101Z,14.68
2023-04-19T05:35:29.477Z,14.35
2023-04-19T05:36:02.559Z,13.90
2023-04-19T05:36:35.738Z,14.18
2023-04-19T05:37:08.806Z,14.60
2023-04-19T05:37:42.597Z,13.93
2023-04-19T05:38:15.981Z,14.15
2023-04-19T05:38:49.277Z,14.73
2023-04-19T05:39:22.751Z,14.30
2023-04-19T05:39:55.932Z,13.30
2023-04-19T05:40:31.355Z,13.98
2023-04-19T05:41:06.387Z,14.00
2023-04-19T05:41:39.761Z,14.73
2023-04-19T05:42:12.934Z,14.13
2023-04-19T05:42:46.527Z,14.70
2023-04-19T05:43:19.609Z,14.05
2023-04-19T05:43:52.675Z,14.75
2023-04-19T05:44:26.575Z,14.35
2023-04-19T05:44:59.977Z,14.97
2023-04-19T05:45:33.854Z,14.15
2023-04-19T05:46:06.960Z,13.98
2023-04-19T05:46:40.340Z,14.90
2023-04-19T05:47:18.012Z,14.70
2023-04-19T05:48:17.794Z,13.60
2023-04-19T05:49:16.598Z,14.15
2023-04-19T05:50:07.980Z,13.82
2023-04-19T05:50:45.356Z,14.55
2023-04-19T05:51:39.728Z,13.68
2023-04-19T05:52:17.416Z,13.83
2023-04-19T05:52:57.241Z,14.20
2023-04-19T05:53:30.422Z,14.90
2023-04-19T05:54:04.113Z,13.73
2023-04-19T05:54:37.453Z,14.52
2023-04-19T05:55:11.740Z,15.00
2023-04-19T05:55:51.326Z,14.10
2023-04-19T05:56:25.221Z,13.85
2023-04-19T05:56:58.701Z,14.25
2023-04-19T05:57:32.087Z,14.13
2023-04-19T05:58:05.187Z,14.43
2023-04-19T05:58:38.602Z,14.18
2023-04-19T05:59:12.129Z,13.93
2023-04-19T05:59:45.318Z,15.00
2023-04-19T06:00:22.390Z,14.18
2023-04-19T06:01:05.077Z,14.27
2023-04-19T06:01:38.891Z,13.23
2023-04-19T06:02:12.522Z,13.98
2023-04-19T06:02:46.077Z,14.77
2023-04-19T06:03:20.638Z,14.07
2023-04-19T06:03:55.009Z,13.87
2023-04-19T06:04:30.583Z,14.07
2023-04-19T06:05:09.759Z,13.90
2023-04-19T06:05:44.717Z,14.02
2023-04-19T06:06:17.958Z,13.25
2023-04-19T06:06:51.212Z,13.48
2023-04-19T06:07:31.948Z,14.88
2023-04-19T06:08:07.688Z,13.88
2023-04-19T06:08:40.866Z,13.70
2023-04-19T06:09:16.187Z,14.05
2023-04-19T06:09:49.412Z,13.53
2023-04-19T06:10:23.712Z,13.93
2023-04-19T06:11:02.175Z,13.80
2023-04-19T06:11:47.056Z,13.95
2023-04-19T06:12:23.898Z,13.45
2023-04-19T06:12:57.379Z,13.20
2023-04-19T06:13:30.764Z,14.02
2023-04-19T06:14:04.247Z,13.35
2023-04-19T06:14:38.769Z,13.15
2023-04-19T06:15:12.450Z,12.98
2023-04-19T06:15:46.637Z,14.37
2023-04-19T06:16:20.262Z,13.45
2023-04-19T06:16:53.714Z,13.10
2023-04-19T06:17:26.822Z,13.27
2023-04-19T06:18:00.264Z,13.98
2023-04-19T06:18:33.665Z,12.65
2023-04-19T06:19:08.488Z,13.88
2023-04-19T06:19:41.958Z,12.70
2023-04-19T06:20:15.144Z,13.98
2023-04-19T06:20:49.031Z,13.52
2023-04-19T06:21:22.308Z,13.80
2023-04-19T06:21:55.590Z,12.77
2023-04-19T06:22:28.874Z,13.85
2023-04-19T06:23:02.052Z,14.52
2023-04-19T06:23:35.334Z,13.27
2023-04-19T06:24:08.448Z,13.43
2023-04-19T06:24:41.793Z,13.57
2023-04-19T06:25:15.690Z,13.93
2023-04-19T06:25:51.422Z,13.93
2023-04-19T06:26:24.702Z,13.10
2023-04-19T06:26:57.986Z,13.37
2023-04-19T06:27:31.264Z,13.25
2023-04-19T06:28:04.555Z,13.65
2023-04-19T06:28:38.333Z,13.68
2023-04-19T06:29:11.925Z,13.93
2023-04-19T06:29:45.615Z,12.73
2023-04-19T06:30:19.196Z,14.20
2023-04-19T06:30:52.376Z,12.75
2023-04-19T06:31:26.081Z,14.10
2023-04-19T06:31:59.360Z,13.25
2023-04-19T06:32:32.765Z,14.07
2023-04-19T06:33:06.214Z,13.80
2023-04-19T06:33:39.502Z,14.00
2023-04-19T06:34:12.777Z,14.35
2023-04-19T06:34:46.257Z,14.02
2023-04-19T06:35:19.450Z,14.25
2023-04-19T06:35:52.925Z,13.85
2023-04-19T06:36:26.104Z,13.82
2023-04-19T06:36:59.175Z,13.23
2023-04-19T06:37:33.990Z,13.02
2023-04-19T06:38:08.310Z,14.23
2023-04-19T06:38:45.276Z,13.75
2023-04-19T06:39:18.748Z,14.00
2023-04-19T06:39:52.332Z,14.30
2023-04-19T06:40:25.736Z,14.18
2023-04-19T06:40:58.995Z,14.50
2023-04-19T06:41:32.178Z,14.40
2023-04-19T06:42:06.068Z,14.27
2023-04-19T06:42:39.865Z,14.60
2023-04-19T06:43:13.270Z,14.60
2023-04-19T06:43:46.638Z,16.17
2023-04-19T06:44:19.907Z,14.38
2023-04-19T06:44:53.288Z,14.88
2023-04-19T06:45:26.674Z,15.07
2023-04-19T06:46:00.394Z,14.82
2023-04-19T06:46:33.582Z,15.00
2023-04-19T06:47:06.925Z,14.60
2023-04-19T06:47:40.094Z,13.68
2023-04-19T06:48:13.684Z,15.55
2023-04-19T06:48:47.274Z,13.68
2023-04-19T06:49:20.362Z,14.43
2023-04-19T06:49:54.145Z,14.23
2023-04-19T06:50:27.739Z,14.52
2023-04-19T06:51:01.124Z,14.23
2023-04-19T06:51:34.697Z,13.23
2023-04-19T06:52:07.877Z,14.23
2023-04-19T06:52:41.364Z,14.32
2023-04-19T06:53:14.341Z,13.50
2023-04-19T06:53:47.436Z,14.10
2023-04-19T06:54:20.792Z,13.70
2023-04-19T06:54:53.883Z,14.00
2023-04-19T06:55:27.466Z,13.90
2023-04-19T06:56:01.658Z,13.90
2023-04-19T06:56:46.215Z,14.20
2023-04-19T06:57:20.031Z,14.15
2023-04-19T06:57:53.485Z,14.48
2023-04-19T06:58:26.758Z,14.20
2023-04-19T06:58:59.837Z,13.48
2023-04-19T06:59:34.043Z,13.93
2023-04-19T07:00:07.521Z,14.50
2023-04-19T07:00:40.804Z,15.00
2023-04-19T07:01:14.143Z,14.85
2023-04-19T07:01:47.939Z,14.25
2023-04-19T07:02:21.805Z,14.13
2023-04-19T07:02:55.590Z,12.73
2023-04-19T07:03:30.314Z,13.77
2023-04-19T07:04:04.296Z,13.55
2023-04-19T07:04:38.606Z,14.15
2023-04-19T07:05:13.949Z,12.98
2023-04-19T07:05:47.704Z,12.82
2023-04-19T07:06:21.082Z,14.60
2023-04-19T07:06:54.462Z,13.68
2023-04-19T07:07:28.149Z,13.73
2023-04-19T07:08:01.438Z,13.23
2023-04-19T07:08:48.761Z,14.13
2023-04-19T07:09:23.148Z,13.02
2023-04-19T07:09:56.432Z,13.57
2023-04-19T07:10:29.402Z,13.27
2023-04-19T07:11:02.602Z,13.93
2023-04-19T07:11:35.976Z,14.10
2023-04-19T07:12:09.441Z,13.83
2023-04-19T07:12:42.777Z,12.85
2023-04-19T07:13:15.908Z,12.82
2023-04-19T07:13:48.983Z,13.27
2023-04-19T07:14:22.267Z,13.98
2023-04-19T07:14:57.691Z,13.60
2023-04-19T07:15:30.763Z,13.35
2023-04-19T07:16:07.853Z,13.40
2023-04-19T07:16:42.337Z,13.20
2023-04-19T07:17:15.624Z,12.80
2023-04-19T07:17:48.878Z,13.67
2023-04-19T07:18:22.076Z,13.90
2023-04-19T07:18:55.376Z,14.27
2023-04-19T07:19:29.669Z,13.60
2023-04-19T07:20:04.172Z,13.23
2023-04-19T07:20:37.550Z,13.80
2023-04-19T07:21:10.938Z,13.85
2023-04-19T07:21:44.134Z,13.85
2023-04-19T07:22:17.295Z,13.95
2023-04-19T07:22:50.880Z,12.80
2023-04-19T07:23:24.158Z,13.70
2023-04-19T07:23:57.346Z,14.68
2023-04-19T07:24:30.928Z,14.60
2023-04-19T07:25:04.207Z,13.13
2023-04-19T07:25:39.430Z,13.80
2023-04-19T07:26:12.924Z,13.18
2023-04-19T07:26:46.399Z,13.45